YPPD/PHE METAR and TAF weather

Enter ICAO airport designator
Station Type Date Time Source
YPPD METAR 2020/02/27 14:00 UTC NOAA

YPPD 271400Z AUTO 29009KT 9999 // NCD 29/26 Q1006


Station Type Date Time Source
YPPD Decoded METAR 2020/02/27 14:00 UTC NOAA

Port Hedland Pardoo, Australia (YPPD) 20-06S 119-34E 10M
Feb 27, 2020 - 09:00 AM EST / 2020.02.27 1400 UTC
Wind: from the WNW (290 degrees) at 10 MPH (9 KT):0
Visibility: greater than 7 mile(s):0
Temperature: 84 F (29 C)
Dew Point: 78 F (26 C)
Relative Humidity: 83%
Pressure (altimeter): 29.71 in. Hg (1006 hPa)
ob: YPPD 271400Z AUTO 29009KT 9999 // NCD 29/26 Q1006
cycle: 14

Station Type Date Time Source
YPPD TAF 2020/02/27 12:36 UTC NOAA

TAF YPPD 271128Z 2712/2812 32012KT CAVOK
FM271500 25008KT 9999 SCT013
FM280100 33012KT CAVOK
TEMPO 2716/2721 9999 BKN010

Example: see airport list